Time;durP1;ratioP1;P1;durP2;ratioP2;P2;SDS_P1;SDS_P2;PMS_P1;PMS_P2;Temp;Humidity;BMP_temperature;BMP_pressure;BME280_temperature;BME280_humidity;BME280_pressure;Samples;Min_cycle;Max_cycle;Signal;HPM_P1;HPM_P2
2023/12/10 00:01:50;;;;;;;18.23;3.23;;;;;;;12.27;61.92;96343.25;5053305;28;20199;-70
2023/12/10 00:04:15;;;;;;;25.80;3.80;;;;;;;12.22;62.11;96348.25;5067543;28;20174;-69
2023/12/10 00:06:41;;;;;;;17.83;3.40;;;;;;;12.19;62.13;96353.88;5066448;28;20206;-68
2023/12/10 00:09:07;;;;;;;18.93;3.73;;;;;;;12.20;62.21;96351.06;5059989;28;20175;-68
2023/12/10 00:11:32;;;;;;;19.90;4.10;;;;;;;12.19;62.06;96357.31;5058354;28;20179;-69
2023/12/10 00:13:58;;;;;;;17.27;3.97;;;;;;;12.21;61.71;96365.03;5061680;28;20193;-70
2023/12/10 00:16:23;;;;;;;20.67;3.60;;;;;;;12.21;61.24;96365.81;5064970;28;20209;-71
2023/12/10 00:18:49;;;;;;;23.80;3.77;;;;;;;12.18;60.82;96375.88;5063456;28;20205;-68
2023/12/10 00:21:14;;;;;;;15.17;4.23;;;;;;;12.19;60.88;96380.94;5060672;28;20696;-69
2023/12/10 00:23:40;;;;;;;16.67;3.50;;;;;;;12.24;60.96;96388.28;5065735;28;20171;-69
2023/12/10 00:26:05;;;;;;;17.47;4.00;;;;;;;12.12;60.16;96372.97;5066918;28;20299;-70
2023/12/10 00:28:31;;;;;;;19.87;3.50;;;;;;;12.11;60.04;96397.59;5060958;28;20793;-70
2023/12/10 00:30:56;;;;;;;20.37;3.67;;;;;;;12.07;59.92;96398.16;5067126;28;20209;-70
2023/12/10 00:33:21;;;;;;;18.60;4.47;;;;;;;12.13;59.65;96395.63;5067800;28;20594;-69
2023/12/10 00:35:47;;;;;;;12.40;2.90;;;;;;;12.18;59.48;96396.91;5069129;28;20178;-70
2023/12/10 00:38:12;;;;;;;17.47;3.30;;;;;;;12.14;59.09;96405.13;5061607;28;20198;-69
2023/12/10 00:40:38;;;;;;;19.40;3.00;;;;;;;12.16;58.79;96406.75;5068133;28;20747;-68
2023/12/10 00:43:04;;;;;;;20.27;4.37;;;;;;;12.11;58.71;96404.69;5060858;28;20202;-69
2023/12/10 00:45:29;;;;;;;21.93;3.33;;;;;;;12.08;58.73;96405.88;5063580;28;20174;-68
2023/12/10 00:47:55;;;;;;;17.23;2.97;;;;;;;12.18;58.64;96415.28;5068409;28;20527;-69
2023/12/10 00:50:20;;;;;;;20.63;3.50;;;;;;;12.17;58.63;96426.78;5050604;28;20239;-69
2023/12/10 00:52:46;;;;;;;22.87;3.07;;;;;;;12.12;58.39;96433.38;5068638;28;20179;-69
2023/12/10 00:55:12;;;;;;;13.67;3.37;;;;;;;12.17;58.05;96455.69;5068138;28;20249;-70
2023/12/10 00:57:37;;;;;;;29.17;4.17;;;;;;;12.15;58.38;96450.63;5051033;28;20536;-69
2023/12/10 01:00:04;;;;;;;20.17;3.40;;;;;;;12.19;57.88;96459.75;5066564;28;20178;-71
2023/12/10 01:02:30;;;;;;;11.37;3.00;;;;;;;12.17;58.10;96467.00;5064707;28;20199;-69
2023/12/10 01:04:55;;;;;;;22.03;4.17;;;;;;;12.23;58.19;96486.47;5059705;28;20480;-71
2023/12/10 01:07:21;;;;;;;29.73;3.80;;;;;;;12.18;58.03;96494.88;5068092;28;20289;-71
2023/12/10 01:09:46;;;;;;;26.83;4.77;;;;;;;12.04;57.63;96504.38;5063563;28;20183;-70
2023/12/10 01:12:12;;;;;;;19.73;3.60;;;;;;;12.15;57.36;96511.03;5039127;28;20186;-69
2023/12/10 01:14:38;;;;;;;15.13;3.57;;;;;;;12.14;57.37;96523.34;5067182;28;20189;-69
2023/12/10 01:17:03;;;;;;;21.53;4.20;;;;;;;12.19;56.91;96527.25;5065129;28;20669;-70
2023/12/10 01:19:29;;;;;;;24.63;4.90;;;;;;;12.18;57.08;96536.13;5068240;28;20740;-70
2023/12/10 01:21:54;;;;;;;29.70;3.83;;;;;;;12.13;56.79;96547.16;5068247;28;20206;-70
2023/12/10 01:24:20;;;;;;;15.87;4.10;;;;;;;12.20;56.71;96549.88;5068105;28;20273;-71
2023/12/10 01:26:46;;;;;;;25.13;4.60;;;;;;;12.19;56.88;96551.69;5068219;28;20201;-70
2023/12/10 01:29:11;;;;;;;24.20;4.07;;;;;;;12.20;56.84;96566.47;5067647;28;20182;-70
2023/12/10 01:31:36;;;;;;;15.47;3.60;;;;;;;12.22;56.77;96580.22;5050086;28;20182;-69
2023/12/10 01:34:03;;;;;;;24.57;4.53;;;;;;;12.16;56.55;96582.75;5068193;28;20235;-70
2023/12/10 01:36:29;;;;;;;22.67;4.37;;;;;;;12.23;56.83;96588.91;5056773;28;20202;-70
2023/12/10 01:38:55;;;;;;;21.17;4.57;;;;;;;12.25;56.60;96584.31;5063308;28;20425;-71
2023/12/10 01:41:21;;;;;;;16.33;3.87;;;;;;;12.25;56.33;96600.06;5067280;28;20463;-71
2023/12/10 01:43:46;;;;;;;18.20;4.20;;;;;;;12.21;55.90;96590.94;5066510;28;20166;-70
2023/12/10 01:46:12;;;;;;;28.50;4.30;;;;;;;12.13;55.68;96595.25;5057193;28;20179;-70
2023/12/10 01:48:41;;;;;;;23.10;4.53;;;;;;;12.23;55.92;96595.00;5064452;28;20179;-72
2023/12/10 01:51:08;;;;;;;25.20;3.70;;;;;;;12.23;55.79;96591.53;5048903;28;20182;-70
2023/12/10 01:53:34;;;;;;;20.50;4.10;;;;;;;12.33;55.74;96597.38;5049323;28;20454;-70
2023/12/10 01:56:00;;;;;;;24.80;4.30;;;;;;;12.30;55.45;96603.00;5057567;28;20492;-70
2023/12/10 01:58:26;;;;;;;24.70;4.43;;;;;;;12.26;55.34;96612.22;5047059;28;20193;-70
2023/12/10 02:00:52;;;;;;;18.40;4.10;;;;;;;12.31;55.27;96609.88;5064160;28;20197;-73
2023/12/10 02:03:18;;;;;;;25.57;4.27;;;;;;;12.31;55.11;96619.56;5066452;28;20456;-69
2023/12/10 02:05:43;;;;;;;26.90;4.17;;;;;;;12.28;55.02;96626.81;5040256;28;20182;-68
2023/12/10 02:08:09;;;;;;;18.53;4.20;;;;;;;12.31;55.20;96636.16;5067987;28;20478;-69
2023/12/10 02:10:34;;;;;;;14.00;3.43;;;;;;;12.31;55.13;96636.16;5062587;28;20174;-69
2023/12/10 02:13:00;;;;;;;28.00;4.20;;;;;;;12.31;54.84;96640.56;5067586;28;21027;-70
2023/12/10 02:15:29;;;;;;;25.10;4.37;;;;;;;12.31;55.14;96636.16;5051734;28;20666;-69
2023/12/10 02:17:55;;;;;;;15.17;3.40;;;;;;;12.35;55.32;96634.78;5071797;28;20206;-70
2023/12/10 02:20:20;;;;;;;26.30;4.33;;;;;;;12.23;55.28;96629.16;5069555;28;20459;-69
2023/12/10 02:23:07;;;;;;;21.20;3.60;;;;;;;12.25;55.42;96644.72;5068767;28;20206;-69
2023/12/10 02:25:36;;;;;;;17.47;3.57;;;;;;;12.08;55.57;96649.28;5053142;28;20186;-70
2023/12/10 02:28:06;;;;;;;22.37;3.60;;;;;;;12.17;55.27;96644.81;5053117;28;20531;-68
2023/12/10 02:30:32;;;;;;;23.00;4.10;;;;;;;12.12;55.83;96643.50;5044610;28;20854;-69
2023/12/10 02:32:58;;;;;;;20.53;3.70;;;;;;;12.05;56.50;96652.25;5069745;28;20427;-69
2023/12/10 02:35:23;;;;;;;13.23;3.40;;;;;;;12.09;57.05;96680.66;5064996;28;20416;-69
2023/12/10 02:37:49;;;;;;;20.40;3.50;;;;;;;12.07;57.06;96679.19;5052199;28;20818;-69
2023/12/10 02:40:17;;;;;;;22.17;3.73;;;;;;;12.11;57.40;96698.84;5068288;28;20183;-69
2023/12/10 02:42:45;;;;;;;16.97;3.40;;;;;;;12.04;58.18;96701.34;5068034;28;20494;-70
2023/12/10 02:45:11;;;;;;;11.57;3.00;;;;;;;12.03;58.82;96717.31;5070914;28;20431;-69
2023/12/10 02:47:37;;;;;;;20.67;3.77;;;;;;;11.88;59.65;96714.53;5070149;28;20994;-69
2023/12/10 02:50:03;;;;;;;12.47;3.00;;;;;;;11.80;59.92;96705.72;5057609;28;20256;-70
2023/12/10 02:52:28;;;;;;;8.10;2.43;;;;;;;11.80;59.86;96711.00;5050924;28;20181;-70
2023/12/10 02:54:54;;;;;;;12.60;2.80;;;;;;;11.85;59.93;96710.47;5071361;28;21037;-69
2023/12/10 02:57:19;;;;;;;7.73;2.43;;;;;;;11.78;60.20;96715.59;5056714;28;20664;-68
2023/12/10 02:59:45;;;;;;;9.00;2.30;;;;;;;11.77;60.05;96723.66;5045133;28;20240;-69
2023/12/10 03:02:10;;;;;;;13.17;2.30;;;;;;;11.68;59.92;96741.22;5065137;28;20202;-70
2023/12/10 03:04:36;;;;;;;6.10;1.67;;;;;;;11.66;60.02;96737.97;5060141;28;20187;-70
2023/12/10 03:07:01;;;;;;;8.53;2.70;;;;;;;11.60;59.97;96754.38;5070590;28;20594;-69
2023/12/10 03:09:27;;;;;;;12.77;3.93;;;;;;;11.62;60.15;96749.78;5070062;28;20190;-68
2023/12/10 03:11:52;;;;;;;9.37;2.50;;;;;;;11.60;60.02;96752.56;5070001;28;20300;-68
2023/12/10 03:14:18;;;;;;;8.27;1.47;;;;;;;11.61;59.74;96748.97;5069860;28;20185;-69
2023/12/10 03:16:43;;;;;;;11.13;1.60;;;;;;;11.63;59.54;96733.03;5064182;28;20202;-70
2023/12/10 03:19:09;;;;;;;8.57;2.43;;;;;;;11.56;59.41;96766.22;5070329;28;20174;-69
2023/12/10 03:21:35;;;;;;;8.40;2.00;;;;;;;11.57;59.43;96760.78;5069182;28;20900;-68
2023/12/10 03:24:00;;;;;;;10.70;2.10;;;;;;;11.52;59.57;96758.66;5070431;28;20420;-69
2023/12/10 03:26:26;;;;;;;9.47;1.77;;;;;;;11.53;59.22;96765.56;5063401;28;20575;-69
2023/12/10 03:28:51;;;;;;;8.77;1.67;;;;;;;11.56;59.30;96779.34;5067484;28;20181;-69
2023/12/10 03:31:17;;;;;;;9.20;1.80;;;;;;;11.49;59.29;96764.25;5062261;28;20191;-70
2023/12/10 03:33:42;;;;;;;17.03;2.40;;;;;;;11.40;59.10;96764.47;5060586;28;20551;-70
2023/12/10 03:36:08;;;;;;;16.50;2.83;;;;;;;11.26;59.07;96773.81;5069841;28;20331;-69
2023/12/10 03:38:33;;;;;;;12.83;2.13;;;;;;;11.30;59.10;96759.41;5068563;28;20201;-68
2023/12/10 03:40:59;;;;;;;13.10;2.13;;;;;;;11.29;58.70;96768.25;5069438;28;20189;-70
2023/12/10 03:43:24;;;;;;;10.97;2.23;;;;;;;11.37;58.67;96776.09;5069457;28;20210;-71
2023/12/10 03:45:50;;;;;;;7.77;2.80;;;;;;;11.28;58.74;96782.34;5048788;28;20179;-70
2023/12/10 03:48:15;;;;;;;11.10;2.70;;;;;;;11.28;58.38;96790.22;5065763;28;20195;-69
2023/12/10 03:50:41;;;;;;;17.37;3.20;;;;;;;11.32;58.47;96788.91;5065073;28;20182;-70
2023/12/10 03:53:06;;;;;;;18.40;3.30;;;;;;;11.32;57.75;96794.16;5036715;28;20178;-72
2023/12/10 03:55:32;;;;;;;11.40;2.30;;;;;;;11.22;57.62;96789.88;5064726;28;20277;-69
2023/12/10 03:57:57;;;;;;;17.40;2.93;;;;;;;11.29;57.42;96786.63;5065162;28;20191;-68
2023/12/10 04:00:23;;;;;;;25.63;3.30;;;;;;;11.30;57.20;96793.50;5022966;28;20710;-71
2023/12/10 04:02:48;;;;;;;10.77;2.87;;;;;;;11.33;57.29;96801.03;5049537;28;20191;-70
2023/12/10 04:05:14;;;;;;;11.00;1.93;;;;;;;11.36;56.87;96805.94;5051922;28;20692;-70
2023/12/10 04:07:39;;;;;;;11.70;3.00;;;;;;;11.44;56.89;96805.94;5052878;28;20197;-71
2023/12/10 04:10:07;;;;;;;11.30;2.80;;;;;;;11.42;57.17;96809.69;5018522;28;20186;-70
2023/12/10 04:12:32;;;;;;;11.43;2.67;;;;;;;11.32;56.91;96826.44;5035110;28;20568;-70
2023/12/10 04:14:57;;;;;;;16.23;3.00;;;;;;;11.34;57.12;96823.66;5018501;28;20450;-70
2023/12/10 04:17:23;;;;;;;10.30;2.37;;;;;;;11.30;56.62;96824.97;5051386;28;20208;-70
2023/12/10 04:19:49;;;;;;;14.47;2.60;;;;;;;11.25;56.81;96829.88;5068836;28;20196;-70
2023/12/10 04:22:14;;;;;;;14.37;2.90;;;;;;;11.35;56.69;96828.75;5068410;28;20202;-69
2023/12/10 04:24:40;;;;;;;15.23;2.57;;;;;;;11.33;56.71;96829.91;5068726;28;20185;-69
2023/12/10 04:27:05;;;;;;;19.27;3.03;;;;;;;11.29;56.66;96826.75;5067381;28;20203;-69
2023/12/10 04:29:31;;;;;;;12.00;2.40;;;;;;;11.40;56.66;96828.25;5043529;28;20552;-69
2023/12/10 04:31:56;;;;;;;18.63;3.03;;;;;;;11.31;56.34;96835.28;5069080;28;20170;-69
2023/12/10 04:34:21;;;;;;;12.57;2.73;;;;;;;11.29;56.29;96841.69;5065143;28;20248;-70
2023/12/10 04:36:47;;;;;;;13.77;2.23;;;;;;;11.27;55.83;96828.75;5063952;28;20230;-68
2023/12/10 04:39:13;;;;;;;19.17;3.03;;;;;;;11.21;55.74;96822.34;5068039;28;20183;-69
2023/12/10 04:41:38;;;;;;;14.90;2.97;;;;;;;11.31;55.79;96835.28;5068344;28;20214;-70
2023/12/10 04:44:04;;;;;;;10.70;2.63;;;;;;;11.30;55.54;96835.47;5050583;28;20589;-69
2023/12/10 04:46:29;;;;;;;13.13;2.60;;;;;;;11.24;55.31;96844.00;5063537;28;20198;-69
2023/12/10 04:48:55;;;;;;;15.50;2.67;;;;;;;11.29;55.43;96849.56;5065818;28;20242;-70
2023/12/10 04:51:21;;;;;;;14.53;2.80;;;;;;;11.30;55.13;96848.59;5068513;28;20182;-68
2023/12/10 04:53:46;;;;;;;15.20;3.10;;;;;;;11.39;55.18;96852.84;5065610;28;20174;-69
2023/12/10 04:56:12;;;;;;;14.00;2.73;;;;;;;11.44;54.77;96866.28;5065202;28;20467;-70
2023/12/10 04:58:37;;;;;;;12.83;2.37;;;;;;;11.42;54.88;96870.03;5066261;28;20187;-70
2023/12/10 05:01:03;;;;;;;16.17;2.47;;;;;;;11.48;54.48;96861.53;5068292;28;20231;-69
2023/12/10 05:03:29;;;;;;;17.20;2.83;;;;;;;11.39;54.34;96868.56;5060271;28;20210;-70
2023/12/10 05:05:55;;;;;;;14.43;2.70;;;;;;;11.34;54.01;96870.91;5059735;28;20178;-69
2023/12/10 05:08:20;;;;;;;18.73;3.00;;;;;;;11.29;54.41;96868.75;5064340;28;20437;-70
2023/12/10 05:10:46;;;;;;;10.27;2.50;;;;;;;11.37;54.13;96878.41;5057845;28;20289;-70
2023/12/10 05:13:11;;;;;;;19.37;2.87;;;;;;;11.42;54.21;96873.50;5062861;28;20296;-69
2023/12/10 05:15:37;;;;;;;8.10;2.17;;;;;;;11.42;53.87;96884.00;5065333;28;20178;-69
2023/12/10 05:18:02;;;;;;;13.80;2.27;;;;;;;11.40;54.07;96875.47;5067399;28;20209;-69
2023/12/10 05:20:28;;;;;;;9.87;2.53;;;;;;;11.34;53.75;96903.19;5062733;28;20179;-69
2023/12/10 05:22:54;;;;;;;16.67;3.30;;;;;;;11.44;53.76;96899.56;5067126;28;20202;-70
2023/12/10 05:25:19;;;;;;;20.77;3.03;;;;;;;11.36;53.62;96900.38;5048465;28;20602;-70
2023/12/10 05:27:45;;;;;;;11.10;2.20;;;;;;;11.32;53.54;96910.41;5045055;28;20337;-69
2023/12/10 05:30:11;;;;;;;13.13;2.70;;;;;;;11.38;53.60;96914.16;5060240;28;20182;-70
2023/12/10 05:32:37;;;;;;;13.87;2.70;;;;;;;11.39;53.58;96918.44;5047794;28;20249;-70
2023/12/10 05:35:03;;;;;;;21.53;2.80;;;;;;;11.41;53.16;96913.84;5064055;28;20413;-70
2023/12/10 05:37:28;;;;;;;11.83;2.60;;;;;;;11.34;52.82;96912.88;5043647;28;20444;-70
2023/12/10 05:39:54;;;;;;;12.70;2.70;;;;;;;11.41;53.30;96921.72;5063787;28;20409;-69
2023/12/10 05:42:19;;;;;;;17.63;2.50;;;;;;;11.36;53.01;96921.38;5064897;28;20214;-69
2023/12/10 05:44:45;;;;;;;14.00;2.87;;;;;;;11.37;52.98;96930.88;5066876;28;20273;-69
2023/12/10 05:47:10;;;;;;;11.30;2.33;;;;;;;11.42;53.11;96919.91;5056459;28;20210;-69
2023/12/10 05:49:36;;;;;;;13.73;2.57;;;;;;;11.37;53.10;96929.09;5067044;28;20186;-69
2023/12/10 05:52:01;;;;;;;8.57;2.50;;;;;;;11.32;52.74;96939.25;5068135;28;20170;-68
2023/12/10 05:54:27;;;;;;;15.03;2.67;;;;;;;11.31;53.05;96928.94;5059092;28;20233;-68
2023/12/10 05:56:52;;;;;;;11.27;2.30;;;;;;;11.35;53.08;96931.06;5065539;28;20206;-72
2023/12/10 05:59:18;;;;;;;14.73;2.97;;;;;;;11.29;52.83;96941.38;5063999;28;20217;-68
2023/12/10 06:01:43;;;;;;;19.57;3.07;;;;;;;11.25;52.37;96942.69;5062335;28;20247;-70
2023/12/10 06:04:09;;;;;;;9.17;2.13;;;;;;;11.26;52.40;96957.44;5065959;28;20648;-70
2023/12/10 06:06:34;;;;;;;18.17;2.80;;;;;;;11.23;52.73;96966.47;5063664;28;20206;-69
2023/12/10 06:08:59;;;;;;;12.10;2.83;;;;;;;11.34;52.55;96967.97;5067204;28;20185;-69
2023/12/10 06:11:25;;;;;;;14.17;2.70;;;;;;;11.33;52.34;96972.38;5056577;28;20175;-68
2023/12/10 06:13:51;;;;;;;15.73;2.60;;;;;;;11.26;52.30;96979.28;5064956;28;20197;-68
2023/12/10 06:16:16;;;;;;;11.43;2.63;;;;;;;11.25;52.46;96990.75;5059876;28;20274;-68
2023/12/10 06:18:42;;;;;;;12.50;2.60;;;;;;;11.28;51.84;96987.78;5065792;28;20645;-69
2023/12/10 06:21:07;;;;;;;15.07;3.27;;;;;;;11.29;52.20;96999.09;5054086;28;20267;-70
2023/12/10 06:23:33;;;;;;;12.00;2.40;;;;;;;11.29;51.80;97005.16;5046320;28;20260;-70
2023/12/10 06:25:58;;;;;;;9.37;2.27;;;;;;;11.37;51.92;97009.59;5060324;28;20684;-70
2023/12/10 06:28:24;;;;;;;27.77;3.77;;;;;;;11.45;52.00;97014.88;5053321;28;20294;-71
2023/12/10 06:30:49;;;;;;;18.90;3.20;;;;;;;11.45;51.50;97022.75;5060256;28;20179;-69
2023/12/10 06:33:15;;;;;;;14.73;3.10;;;;;;;11.41;51.32;97024.03;5065452;28;20173;-70
2023/12/10 06:35:40;;;;;;;16.60;2.73;;;;;;;11.43;51.13;97018.63;5063783;28;20178;-69
2023/12/10 06:38:05;;;;;;;10.27;2.27;;;;;;;11.46;51.25;97029.66;5054737;28;20212;-71
2023/12/10 06:40:31;;;;;;;13.30;2.50;;;;;;;11.43;51.14;97022.09;5046247;28;20195;-69
2023/12/10 06:42:56;;;;;;;18.83;2.77;;;;;;;11.47;51.11;97028.63;5068461;28;20201;-70
2023/12/10 06:45:22;;;;;;;13.83;3.07;;;;;;;11.49;51.13;97026.66;5042498;28;20186;-70
2023/12/10 06:47:47;;;;;;;14.93;3.03;;;;;;;11.50;50.89;97033.56;5057190;28;20213;-69
2023/12/10 06:50:13;;;;;;;15.23;2.70;;;;;;;11.45;50.75;97035.88;5066425;28;20189;-73
2023/12/10 06:52:38;;;;;;;9.97;2.10;;;;;;;11.44;50.27;97036.84;5059518;28;20194;-68
2023/12/10 06:55:04;;;;;;;13.87;2.67;;;;;;;11.45;50.19;97041.13;5070681;28;20262;-69
2023/12/10 06:57:29;;;;;;;10.60;1.90;;;;;;;11.45;50.02;97056.88;5070848;28;20302;-69
2023/12/10 06:59:55;;;;;;;9.17;2.30;;;;;;;11.52;50.17;97057.84;5068343;28;20216;-69
2023/12/10 07:02:20;;;;;;;12.60;2.60;;;;;;;11.47;50.27;97062.75;5065294;28;20213;-69
2023/12/10 07:04:46;;;;;;;12.67;2.60;;;;;;;11.48;49.95;97059.16;5070399;28;20563;-68
2023/12/10 07:07:11;;;;;;;7.83;2.37;;;;;;;11.48;50.13;97053.09;5070954;28;20194;-68
2023/12/10 07:09:37;;;;;;;10.53;2.20;;;;;;;11.51;50.31;97056.19;5070171;28;20761;-70
2023/12/10 07:12:02;;;;;;;15.63;2.30;;;;;;;11.52;50.33;97060.47;5069867;28;20294;-70
2023/12/10 07:14:28;;;;;;;14.37;2.33;;;;;;;11.47;50.13;97069.81;5070519;28;20209;-69
2023/12/10 07:16:53;;;;;;;15.17;2.53;;;;;;;11.46;50.31;97060.28;5069513;28;20217;-69
2023/12/10 07:19:19;;;;;;;18.57;2.90;;;;;;;11.42;50.72;97066.84;5069899;28;20291;-69
2023/12/10 07:21:44;;;;;;;14.80;2.53;;;;;;;11.46;50.71;97074.25;5069988;28;20199;-69
2023/12/10 07:24:10;;;;;;;11.40;2.20;;;;;;;11.50;51.12;97080.00;5066049;28;20665;-69
2023/12/10 07:26:35;;;;;;;14.40;3.00;;;;;;;11.44;51.32;97080.63;5052454;28;20202;-68
2023/12/10 07:29:01;;;;;;;12.20;2.10;;;;;;;11.49;51.57;97076.53;5059013;28;20184;-69
2023/12/10 07:31:26;;;;;;;12.87;2.60;;;;;;;11.51;51.64;97087.69;5064116;28;20171;-68
2023/12/10 07:33:52;;;;;;;11.23;3.00;;;;;;;11.50;51.62;97090.50;5068782;28;20549;-69
2023/12/10 07:36:17;;;;;;;14.57;2.57;;;;;;;11.55;52.16;97092.63;5059253;28;20240;-70
2023/12/10 07:38:43;;;;;;;14.33;2.43;;;;;;;11.59;51.89;97088.72;5059911;28;20195;-68
2023/12/10 07:41:08;;;;;;;15.90;2.43;;;;;;;11.60;51.77;97085.06;5069777;28;20202;-68
2023/12/10 07:43:34;;;;;;;10.53;2.13;;;;;;;11.57;51.84;97085.44;5067799;28;20227;-68
2023/12/10 07:45:59;;;;;;;18.93;2.90;;;;;;;11.59;52.11;97088.72;5069481;28;20178;-67
2023/12/10 07:48:26;;;;;;;6.97;2.10;;;;;;;11.59;52.00;97099.22;5051763;28;20202;-69
2023/12/10 07:50:52;;;;;;;13.23;2.40;;;;;;;11.64;52.17;97091.66;5068903;28;20182;-69
2023/12/10 07:53:17;;;;;;;12.77;2.40;;;;;;;11.63;51.77;97084.75;5063272;28;20414;-69
2023/12/10 07:55:43;;;;;;;11.23;2.30;;;;;;;11.56;51.83;97092.47;5063193;28;20588;-69
2023/12/10 07:58:08;;;;;;;14.73;2.80;;;;;;;11.51;52.36;97089.50;5069330;28;20194;-70
2023/12/10 08:00:34;;;;;;;19.90;3.30;;;;;;;11.52;51.93;97089.34;5069823;28;20170;-67
2023/12/10 08:02:59;;;;;;;10.47;2.57;;;;;;;11.51;51.96;97090.31;5068976;28;20252;-68
2023/12/10 08:05:25;;;;;;;11.93;2.47;;;;;;;11.52;52.37;97097.22;5067655;28;20257;-68
2023/12/10 08:07:50;;;;;;;12.37;2.10;;;;;;;11.49;52.07;97100.16;5058247;28;20280;-68
2023/12/10 08:10:17;;;;;;;18.00;2.87;;;;;;;11.50;52.22;97106.25;5068308;28;20702;-68
2023/12/10 08:12:43;;;;;;;15.93;3.33;;;;;;;11.60;52.03;97111.31;5069366;28;20186;-69
2023/12/10 08:15:08;;;;;;;18.00;3.20;;;;;;;11.64;52.33;97115.28;5069163;28;20421;-68
2023/12/10 08:17:34;;;;;;;11.80;3.13;;;;;;;11.60;51.46;97119.19;5065564;28;20729;-68
2023/12/10 08:19:59;;;;;;;13.37;2.90;;;;;;;11.64;51.38;97126.63;5065877;28;20210;-68
2023/12/10 08:22:25;;;;;;;14.27;2.87;;;;;;;11.71;51.70;97132.06;5069260;28;20583;-68
2023/12/10 08:24:50;;;;;;;12.63;3.50;;;;;;;11.74;51.50;97130.91;5064311;28;20189;-68
2023/12/10 08:27:16;;;;;;;14.20;3.67;;;;;;;11.80;51.06;97127.59;5069059;28;20579;-68
2023/12/10 08:29:41;;;;;;;14.20;2.63;;;;;;;11.82;51.15;97126.47;5063750;28;20183;-69
2023/12/10 08:32:07;;;;;;;12.70;2.97;;;;;;;11.84;50.93;97129.75;5062258;28;20197;-68
2023/12/10 08:34:32;;;;;;;12.17;2.40;;;;;;;11.89;50.73;97125.81;5062003;28;20646;-67
2023/12/10 08:36:58;;;;;;;12.30;2.40;;;;;;;11.88;50.89;97130.25;5062769;28;20213;-70
2023/12/10 08:39:23;;;;;;;15.10;2.83;;;;;;;11.91;50.81;97132.53;5067031;28;20275;-68
2023/12/10 08:41:49;;;;;;;9.07;2.43;;;;;;;11.91;50.64;97129.91;5063446;28;20202;-68
2023/12/10 08:44:15;;;;;;;13.33;2.70;;;;;;;11.90;50.73;97132.72;5062958;28;20209;-69
2023/12/10 08:46:40;;;;;;;15.90;2.50;;;;;;;11.90;50.65;97136.19;5067483;28;20455;-70
2023/12/10 08:49:06;;;;;;;13.73;2.50;;;;;;;11.97;50.26;97133.72;5062803;28;20837;-69
2023/12/10 08:51:31;;;;;;;16.20;2.53;;;;;;;12.03;50.53;97130.47;5056552;28;20201;-71
2023/12/10 08:53:59;;;;;;;9.40;2.43;;;;;;;12.08;50.86;97124.72;5067753;28;20178;-70
2023/12/10 08:56:25;;;;;;;10.43;2.10;;;;;;;12.08;50.66;97115.03;5067941;28;20178;-69
2023/12/10 08:58:50;;;;;;;12.13;2.63;;;;;;;12.43;49.90;97123.56;5060341;28;20433;-68
2023/12/10 09:01:16;;;;;;;12.77;1.83;;;;;;;12.92;49.28;97115.75;5064254;28;20482;-70
2023/12/10 09:03:42;;;;;;;14.67;2.77;;;;;;;13.27;48.19;97124.97;5045460;28;20189;-69
2023/12/10 09:06:08;;;;;;;8.07;2.40;;;;;;;13.69;47.33;97125.59;5065946;28;20174;-69
2023/12/10 09:08:34;;;;;;;13.93;2.43;;;;;;;14.12;46.26;97123.34;5045243;28;20457;-70
2023/12/10 09:11:03;;;;;;;9.93;2.47;;;;;;;14.49;45.28;97134.06;5063842;28;20571;-69
2023/12/10 09:13:33;;;;;;;10.17;2.30;;;;;;;14.85;44.38;97130.78;5056264;28;20289;-69
2023/12/10 09:15:58;;;;;;;10.53;2.77;;;;;;;15.15;44.01;97140.53;5066447;28;20441;-70
2023/12/10 09:18:27;;;;;;;9.93;2.40;;;;;;;15.42;43.29;97140.88;5057825;28;20875;-69
2023/12/10 09:20:53;;;;;;;10.10;2.20;;;;;;;15.82;41.99;97138.66;5067217;28;20232;-69
2023/12/10 09:23:19;;;;;;;10.57;2.33;;;;;;;16.24;42.40;97146.81;5048528;28;20460;-70
2023/12/10 09:25:44;;;;;;;7.63;2.13;;;;;;;16.40;40.92;97137.81;5041204;28;20803;-69
2023/12/10 09:28:10;;;;;;;12.43;3.20;;;;;;;16.65;41.02;97150.59;5062490;28;20202;-70
2023/12/10 09:30:36;;;;;;;11.03;2.83;;;;;;;16.99;40.62;97144.56;5066146;28;20189;-69
2023/12/10 09:33:02;;;;;;;8.43;2.17;;;;;;;17.22;39.77;97147.91;5066319;28;20420;-69
2023/12/10 09:35:27;;;;;;;12.17;2.43;;;;;;;17.40;38.72;97150.03;5064100;28;20261;-69
2023/12/10 09:37:53;;;;;;;10.73;2.07;;;;;;;17.78;38.76;97168.13;5064414;28;20190;-69
2023/12/10 09:40:18;;;;;;;7.93;2.40;;;;;;;18.09;37.37;97164.16;5063693;28;20645;-71
2023/12/10 09:42:44;;;;;;;10.90;1.80;;;;;;;18.05;37.23;97178.81;5072668;28;20191;-69
2023/12/10 09:45:10;;;;;;;9.47;2.50;;;;;;;17.90;37.72;97193.03;5076395;28;20261;-70
2023/12/10 09:47:36;;;;;;;4.90;1.57;;;;;;;16.98;38.87;97198.50;5057593;28;20199;-71
2023/12/10 09:50:03;;;;;;;13.47;2.90;;;;;;;16.09;41.02;97213.78;5067670;28;20190;-70
2023/12/10 09:52:28;;;;;;;6.50;1.63;;;;;;;15.71;41.69;97208.66;5069192;28;20409;-70
2023/12/10 09:54:54;;;;;;;6.73;1.50;;;;;;;15.42;42.61;97220.88;5067820;28;20428;-70
2023/12/10 09:57:20;;;;;;;9.87;2.13;;;;;;;15.17;43.75;97225.63;5064096;28;20695;-70
2023/12/10 09:59:46;;;;;;;6.70;1.90;;;;;;;15.70;43.09;97225.50;5067253;28;20182;-70
2023/12/10 10:02:12;;;;;;;11.10;2.60;;;;;;;16.01;42.76;97221.00;5066217;28;20540;-70
2023/12/10 10:04:41;;;;;;;8.13;2.07;;;;;;;16.05;42.46;97220.44;5061153;28;21241;-70
2023/12/10 10:07:06;;;;;;;11.30;2.30;;;;;;;16.19;42.54;97223.25;5063814;28;20205;-70
2023/12/10 10:09:38;;;;;;;9.43;2.00;;;;;;;16.12;42.06;97221.34;5050100;28;20928;-70
2023/12/10 10:12:05;;;;;;;6.60;1.80;;;;;;;15.94;42.82;97228.88;5062988;28;20194;-71
2023/12/10 10:14:30;;;;;;;11.77;2.40;;;;;;;16.18;42.41;97211.03;5066911;28;20457;-70
2023/12/10 10:16:56;;;;;;;9.30;2.07;;;;;;;15.84;42.82;97225.69;5055368;28;20471;-70
2023/12/10 10:19:21;;;;;;;8.50;2.20;;;;;;;15.28;43.92;97209.34;5065334;28;20186;-70
2023/12/10 10:21:47;;;;;;;10.70;2.00;;;;;;;15.00;44.84;97209.94;5066942;28;20229;-70
2023/12/10 10:24:13;;;;;;;9.87;2.23;;;;;;;14.76;45.46;97204.91;5066783;28;20182;-71
2023/12/10 10:26:39;;;;;;;6.93;2.23;;;;;;;14.49;46.28;97207.88;5067644;28;20194;-70
2023/12/10 10:29:05;;;;;;;8.40;1.97;;;;;;;14.48;46.18;97211.53;5070400;28;20182;-71
2023/12/10 10:31:34;;;;;;;8.20;2.43;;;;;;;14.37;46.87;97204.03;5071254;28;20412;-71
2023/12/10 10:34:02;;;;;;;10.70;2.10;;;;;;;14.33;46.82;97211.47;5049240;28;20446;-72
2023/12/10 10:36:27;;;;;;;11.70;2.73;;;;;;;13.91;47.52;97205.66;5053775;28;20420;-70
2023/12/10 10:38:53;;;;;;;10.90;2.30;;;;;;;13.87;47.31;97206.19;5062928;28;20428;-71
2023/12/10 10:41:19;;;;;;;7.50;2.30;;;;;;;13.95;47.54;97211.38;5033475;28;20181;-71
2023/12/10 10:43:44;;;;;;;9.10;2.03;;;;;;;13.75;47.85;97214.47;5065082;28;20186;-69
2023/12/10 10:46:11;;;;;;;5.40;2.00;;;;;;;13.57;48.29;97206.81;5059025;28;20847;-70
2023/12/10 10:48:37;;;;;;;10.63;2.30;;;;;;;13.51;48.42;97208.31;5067849;28;20202;-70
2023/12/10 10:51:03;;;;;;;11.70;1.97;;;;;;;13.47;48.54;97206.22;5048233;28;20420;-70
2023/12/10 10:53:29;;;;;;;9.70;2.00;;;;;;;13.63;48.38;97202.69;5045120;28;20912;-70
2023/12/10 10:55:55;;;;;;;6.13;1.70;;;;;;;13.61;48.26;97196.75;5049475;28;20194;-70
2023/12/10 10:58:25;;;;;;;7.30;1.97;;;;;;;13.69;47.92;97196.72;5066942;28;20476;-71
2023/12/10 11:00:51;;;;;;;11.83;2.50;;;;;;;13.35;47.98;97193.38;5061980;28;20848;-70
2023/12/10 11:03:17;;;;;;;7.80;1.90;;;;;;;13.32;48.41;97188.47;5059773;28;20452;-70
2023/12/10 11:05:42;;;;;;;9.90;2.30;;;;;;;13.44;48.15;97182.84;5064015;28;20675;-70
2023/12/10 11:08:08;;;;;;;14.70;2.57;;;;;;;13.29;48.32;97186.16;5068502;28;20217;-70
2023/12/10 11:10:43;;;;;;;20.10;2.30;;;;;;;13.25;48.68;97179.59;5057243;28;20183;-70
2023/12/10 11:13:08;;;;;;;11.03;2.20;;;;;;;13.09;48.88;97190.19;5049932;28;20424;-70
2023/12/10 11:15:34;;;;;;;7.50;2.37;;;;;;;13.16;49.25;97180.59;5063963;28;20420;-70
2023/12/10 11:18:00;;;;;;;12.97;2.40;;;;;;;13.14;49.56;97185.22;5068093;28;20724;-70
2023/12/10 11:20:33;;;;;;;11.67;2.20;;;;;;;13.13;49.39;97180.94;5067879;28;20186;-72